sensor_id;sensor_type;location;lat;lon;timestamp;pressure;altitude;pressure_sealevel;temperature;humidity
46045;BME280;31781;54.094;13.428;2023-05-21T00:00:43;102404.63;;;13.70;67.45
46045;BME280;31781;54.094;13.428;2023-05-21T00:02:45;102403.78;;;13.69;67.52
46045;BME280;31781;54.094;13.428;2023-05-21T00:04:47;102396.59;;;13.68;67.52
46045;BME280;31781;54.094;13.428;2023-05-21T00:06:48;102393.84;;;13.68;67.62
46045;BME280;31781;54.094;13.428;2023-05-21T00:08:50;102391.34;;;13.67;67.76
46045;BME280;31781;54.094;13.428;2023-05-21T00:10:52;102398.69;;;13.66;68.01
46045;BME280;31781;54.094;13.428;2023-05-21T00:12:53;102388.94;;;13.63;67.67
46045;BME280;31781;54.094;13.428;2023-05-21T00:14:55;102393.59;;;13.63;67.88
46045;BME280;31781;54.094;13.428;2023-05-21T00:16:58;102389.16;;;13.62;67.13
46045;BME280;31781;54.094;13.428;2023-05-21T00:19:00;102391.03;;;13.61;67.93
46045;BME280;31781;54.094;13.428;2023-05-21T00:21:02;102386.59;;;13.60;67.85
46045;BME280;31781;54.094;13.428;2023-05-21T00:23:04;102381.97;;;13.61;68.14
46045;BME280;31781;54.094;13.428;2023-05-21T00:25:06;102385.75;;;13.60;67.89
46045;BME280;31781;54.094;13.428;2023-05-21T00:27:08;102386.59;;;13.60;67.76
46045;BME280;31781;54.094;13.428;2023-05-21T00:29:10;102380.47;;;13.58;68.28
46045;BME280;31781;54.094;13.428;2023-05-21T00:31:12;102379.44;;;13.59;67.92
46045;BME280;31781;54.094;13.428;2023-05-21T00:33:15;102373.13;;;13.59;68.28
46045;BME280;31781;54.094;13.428;2023-05-21T00:35:17;102375.00;;;13.58;67.98
46045;BME280;31781;54.094;13.428;2023-05-21T00:37:18;102372.44;;;13.57;68.43
46045;BME280;31781;54.094;13.428;2023-05-21T00:39:20;102370.56;;;13.57;67.79
46045;BME280;31781;54.094;13.428;2023-05-21T00:41:22;102380.88;;;13.55;68.16
46045;BME280;31781;54.094;13.428;2023-05-21T00:43:24;102368.22;;;13.54;68.27
46045;BME280;31781;54.094;13.428;2023-05-21T00:45:26;102379.34;;;13.53;68.38
46045;BME280;31781;54.094;13.428;2023-05-21T00:47:27;102369.47;;;13.52;67.91
46045;BME280;31781;54.094;13.428;2023-05-21T00:49:30;102365.19;;;13.49;67.97
46045;BME280;31781;54.094;13.428;2023-05-21T00:51:33;102371.72;;;13.48;67.98
46045;BME280;31781;54.094;13.428;2023-05-21T00:53:35;102372.75;;;13.47;68.36
46045;BME280;31781;54.094;13.428;2023-05-21T00:55:37;102363.06;;;13.45;67.81
46045;BME280;31781;54.094;13.428;2023-05-21T00:57:39;102360.50;;;13.43;68.24
46045;BME280;31781;54.094;13.428;2023-05-21T00:59:41;102366.13;;;13.42;68.33
46045;BME280;31781;54.094;13.428;2023-05-21T01:01:44;102362.75;;;13.40;68.49
46045;BME280;31781;54.094;13.428;2023-05-21T01:03:46;102356.44;;;13.39;68.56
46045;BME280;31781;54.094;13.428;2023-05-21T01:05:50;102358.31;;;13.39;68.39
46045;BME280;31781;54.094;13.428;2023-05-21T01:07:55;102347.59;;;13.37;68.89
46045;BME280;31781;54.094;13.428;2023-05-21T01:09:57;102354.09;;;13.36;68.36
46045;BME280;31781;54.094;13.428;2023-05-21T01:12:00;102356.13;;;13.34;68.80
46045;BME280;31781;54.094;13.428;2023-05-21T01:14:03;102354.47;;;13.33;68.83
46045;BME280;31781;54.094;13.428;2023-05-21T01:16:08;102358.22;;;13.32;68.29
46045;BME280;31781;54.094;13.428;2023-05-21T01:18:11;102358.41;;;13.31;68.48
46045;BME280;31781;54.094;13.428;2023-05-21T01:20:14;102353.13;;;13.29;68.90
46045;BME280;31781;54.094;13.428;2023-05-21T01:22:20;102357.75;;;13.29;67.94
46045;BME280;31781;54.094;13.428;2023-05-21T01:24:23;102356.06;;;13.28;68.63
46045;BME280;31781;54.094;13.428;2023-05-21T01:26:25;102356.91;;;13.28;69.52
46045;BME280;31781;54.094;13.428;2023-05-21T01:28:27;102356.06;;;13.28;68.81
46045;BME280;31781;54.094;13.428;2023-05-21T01:30:29;102347.84;;;13.28;69.13
46045;BME280;31781;54.094;13.428;2023-05-21T01:32:34;102349.72;;;13.27;68.62
46045;BME280;31781;54.094;13.428;2023-05-21T01:34:47;102357.06;;;13.27;68.99
46045;BME280;31781;54.094;13.428;2023-05-21T01:36:56;102351.81;;;13.25;69.01
46045;BME280;31781;54.094;13.428;2023-05-21T01:39:06;102345.50;;;13.25;68.08
46045;BME280;31781;54.094;13.428;2023-05-21T01:41:12;102344.47;;;13.26;67.96
46045;BME280;31781;54.094;13.428;2023-05-21T01:43:15;102342.75;;;13.25;69.28
46045;BME280;31781;54.094;13.428;2023-05-21T01:45:18;102341.72;;;13.26;69.59
46045;BME280;31781;54.094;13.428;2023-05-21T01:47:23;102341.72;;;13.26;69.51
46045;BME280;31781;54.094;13.428;2023-05-21T01:49:28;102339.84;;;13.26;69.89
46045;BME280;31781;54.094;13.428;2023-05-21T01:51:31;102339.00;;;13.26;69.78
46045;BME280;31781;54.094;13.428;2023-05-21T01:53:33;102339.00;;;13.26;69.51
46045;BME280;31781;54.094;13.428;2023-05-21T01:55:35;102332.69;;;13.25;69.40
46045;BME280;31781;54.094;13.428;2023-05-21T01:57:38;102340.88;;;13.25;69.70
46045;BME280;31781;54.094;13.428;2023-05-21T01:59:40;102344.47;;;13.26;69.31
46045;BME280;31781;54.094;13.428;2023-05-21T02:01:42;102331.66;;;13.26;69.49
46045;BME280;31781;54.094;13.428;2023-05-21T02:03:43;102331.66;;;13.26;69.48
46045;BME280;31781;54.094;13.428;2023-05-21T02:05:45;102329.94;;;13.25;69.67
46045;BME280;31781;54.094;13.428;2023-05-21T02:07:48;102331.66;;;13.26;69.70
46045;BME280;31781;54.094;13.428;2023-05-21T02:09:50;102331.66;;;13.26;68.89
46045;BME280;31781;54.094;13.428;2023-05-21T02:11:52;102328.72;;;13.28;68.93
46045;BME280;31781;54.094;13.428;2023-05-21T02:13:56;102323.91;;;13.30;69.08
46045;BME280;31781;54.094;13.428;2023-05-21T02:15:57;102323.91;;;13.30;69.20
46045;BME280;31781;54.094;13.428;2023-05-21T02:17:59;102323.72;;;13.31;69.23
46045;BME280;31781;54.094;13.428;2023-05-21T02:20:02;102319.09;;;13.32;68.82
46045;BME280;31781;54.094;13.428;2023-05-21T02:22:04;102319.78;;;13.34;69.40
46045;BME280;31781;54.094;13.428;2023-05-21T02:24:05;102310.50;;;13.35;69.64
46045;BME280;31781;54.094;13.428;2023-05-21T02:26:07;102313.06;;;13.36;69.55
46045;BME280;31781;54.094;13.428;2023-05-21T02:28:09;102308.47;;;13.37;69.70
46045;BME280;31781;54.094;13.428;2023-05-21T02:30:14;102307.41;;;13.38;69.08
46045;BME280;31781;54.094;13.428;2023-05-21T02:32:16;102314.56;;;13.39;69.99
46045;BME280;31781;54.094;13.428;2023-05-21T02:34:17;102309.94;;;13.39;69.90
46045;BME280;31781;54.094;13.428;2023-05-21T02:36:19;102307.22;;;13.39;69.83
46045;BME280;31781;54.094;13.428;2023-05-21T02:38:21;102312.50;;;13.41;69.57
46045;BME280;31781;54.094;13.428;2023-05-21T02:40:23;102320.50;;;13.42;69.76
46045;BME280;31781;54.094;13.428;2023-05-21T02:42:24;102307.69;;;13.43;70.58
46045;BME280;31781;54.094;13.428;2023-05-21T02:44:26;102309.41;;;13.44;69.93
46045;BME280;31781;54.094;13.428;2023-05-21T02:46:30;102311.09;;;13.45;70.11
46045;BME280;31781;54.094;13.428;2023-05-21T02:48:31;102306.44;;;13.45;70.50
46045;BME280;31781;54.094;13.428;2023-05-21T02:50:33;102309.84;;;13.47;69.81
46045;BME280;31781;54.094;13.428;2023-05-21T02:52:35;102302.31;;;13.49;70.52
46045;BME280;31781;54.094;13.428;2023-05-21T02:54:36;102297.69;;;13.50;70.89
46045;BME280;31781;54.094;13.428;2023-05-21T02:56:38;102300.25;;;13.51;70.26
46045;BME280;31781;54.094;13.428;2023-05-21T02:58:40;102299.22;;;13.52;70.75
46045;BME280;31781;54.094;13.428;2023-05-21T03:00:42;102297.13;;;13.54;70.30
46045;BME280;31781;54.094;13.428;2023-05-21T03:02:45;102297.13;;;13.54;70.41
46045;BME280;31781;54.094;13.428;2023-05-21T03:04:47;102294.22;;;13.56;71.00
46045;BME280;31781;54.094;13.428;2023-05-21T03:06:48;102292.13;;;13.58;70.08
46045;BME280;31781;54.094;13.428;2023-05-21T03:08:50;102292.97;;;13.58;70.49
46045;BME280;31781;54.094;13.428;2023-05-21T03:10:52;102294.66;;;13.59;71.01
46045;BME280;31781;54.094;13.428;2023-05-21T03:12:54;102292.75;;;13.60;70.82
46045;BME280;31781;54.094;13.428;2023-05-21T03:14:55;102288.13;;;13.60;70.60
46045;BME280;31781;54.094;13.428;2023-05-21T03:16:57;102284.38;;;13.61;70.80
46045;BME280;31781;54.094;13.428;2023-05-21T03:19:00;102281.63;;;13.61;70.64
46045;BME280;31781;54.094;13.428;2023-05-21T03:21:03;102285.22;;;13.62;70.81
46045;BME280;31781;54.094;13.428;2023-05-21T03:23:04;102281.63;;;13.61;70.10
46045;BME280;31781;54.094;13.428;2023-05-21T03:25:07;102278.72;;;13.63;70.61
46045;BME280;31781;54.094;13.428;2023-05-21T03:27:09;102282.28;;;13.63;70.70
46045;BME280;31781;54.094;13.428;2023-05-21T03:29:12;102279.38;;;13.65;69.87
46045;BME280;31781;54.094;13.428;2023-05-21T03:31:14;102278.34;;;13.66;70.33
46045;BME280;31781;54.094;13.428;2023-05-21T03:33:16;102279.19;;;13.67;70.37
46045;BME280;31781;54.094;13.428;2023-05-21T03:35:19;102285.31;;;13.69;70.42
46045;BME280;31781;54.094;13.428;2023-05-21T03:37:21;102277.09;;;13.69;70.65
46045;BME280;31781;54.094;13.428;2023-05-21T03:39:23;102281.31;;;13.71;70.49
46045;BME280;31781;54.094;13.428;2023-05-21T03:41:25;102278.41;;;13.73;70.34
46045;BME280;31781;54.094;13.428;2023-05-21T03:43:27;102275.66;;;13.73;70.58
46045;BME280;31781;54.094;13.428;2023-05-21T03:45:29;102278.22;;;13.74;71.08
46045;BME280;31781;54.094;13.428;2023-05-21T03:47:31;102271.69;;;13.75;70.99
46045;BME280;31781;54.094;13.428;2023-05-21T03:49:32;102274.72;;;13.80;71.14
46045;BME280;31781;54.094;13.428;2023-05-21T03:51:35;102269.06;;;13.82;71.24
46045;BME280;31781;54.094;13.428;2023-05-21T03:53:37;102270.72;;;13.83;71.83
46045;BME280;31781;54.094;13.428;2023-05-21T03:55:39;102271.41;;;13.85;72.20
46045;BME280;31781;54.094;13.428;2023-05-21T03:57:41;102272.03;;;13.87;71.93
46045;BME280;31781;54.094;13.428;2023-05-21T03:59:43;102273.75;;;13.88;71.86
46045;BME280;31781;54.094;13.428;2023-05-21T04:01:44;102277.97;;;13.90;71.75
46045;BME280;31781;54.094;13.428;2023-05-21T04:03:46;102272.31;;;13.92;71.89
46045;BME280;31781;54.094;13.428;2023-05-21T04:05:48;102270.22;;;13.94;72.21
46045;BME280;31781;54.094;13.428;2023-05-21T04:07:51;102275.50;;;13.95;71.96
46045;BME280;31781;54.094;13.428;2023-05-21T04:09:53;102275.97;;;13.99;72.06
46045;BME280;31781;54.094;13.428;2023-05-21T04:11:55;102276.44;;;14.02;72.68
46045;BME280;31781;54.094;13.428;2023-05-21T04:13:57;102272.44;;;14.05;72.16
46045;BME280;31781;54.094;13.428;2023-05-21T04:15:59;102271.00;;;14.09;72.06
46045;BME280;31781;54.094;13.428;2023-05-21T04:18:00;102277.78;;;14.13;72.93
46045;BME280;31781;54.094;13.428;2023-05-21T04:20:03;102279.09;;;14.17;72.60
46045;BME280;31781;54.094;13.428;2023-05-21T04:22:04;102277.84;;;14.20;72.50
46045;BME280;31781;54.094;13.428;2023-05-21T04:24:08;102277.09;;;14.26;72.73
46045;BME280;31781;54.094;13.428;2023-05-21T04:26:09;102279.44;;;14.29;72.31
46045;BME280;31781;54.094;13.428;2023-05-21T04:28:11;102278.00;;;14.33;72.21
46045;BME280;31781;54.094;13.428;2023-05-21T04:30:13;102280.19;;;14.37;72.46
46045;BME280;31781;54.094;13.428;2023-05-21T04:32:15;102279.38;;;14.43;72.04
46045;BME280;31781;54.094;13.428;2023-05-21T04:34:16;102276.91;;;14.48;71.90
46045;BME280;31781;54.094;13.428;2023-05-21T04:36:18;102268.94;;;14.53;71.67
46045;BME280;31781;54.094;13.428;2023-05-21T04:38:20;102278.25;;;14.59;71.70
46045;BME280;31781;54.094;13.428;2023-05-21T04:40:23;102274.91;;;14.63;71.50
46045;BME280;31781;54.094;13.428;2023-05-21T04:42:25;102276.88;;;14.70;71.55
46045;BME280;31781;54.094;13.428;2023-05-21T04:44:27;102269.72;;;14.75;72.14
46045;BME280;31781;54.094;13.428;2023-05-21T04:46:29;102276.09;;;14.82;71.20
46045;BME280;31781;54.094;13.428;2023-05-21T04:48:31;102269.00;;;14.88;71.62
46045;BME280;31781;54.094;13.428;2023-05-21T04:50:33;102266.28;;;14.94;71.28
46045;BME280;31781;54.094;13.428;2023-05-21T04:52:34;102272.66;;;15.01;71.15
46045;BME280;31781;54.094;13.428;2023-05-21T04:54:36;102272.69;;;15.08;70.59
46045;BME280;31781;54.094;13.428;2023-05-21T04:56:47;102271.50;;;15.17;68.93
46045;BME280;31781;54.094;13.428;2023-05-21T04:58:50;102272.56;;;15.23;70.80
46045;BME280;31781;54.094;13.428;2023-05-21T05:00:51;102273.47;;;15.30;70.33
46045;BME280;31781;54.094;13.428;2023-05-21T05:02:53;102273.28;;;15.38;69.96
46045;BME280;31781;54.094;13.428;2023-05-21T05:04:54;102278.16;;;15.42;69.73
46045;BME280;31781;54.094;13.428;2023-05-21T05:06:56;102277.19;;;15.50;69.73
46045;BME280;31781;54.094;13.428;2023-05-21T05:08:58;102280.78;;;15.57;69.06
46045;BME280;31781;54.094;13.428;2023-05-21T05:10:59;102277.88;;;15.65;68.93
46045;BME280;31781;54.094;13.428;2023-05-21T05:13:02;102284.44;;;15.71;68.75
46045;BME280;31781;54.094;13.428;2023-05-21T05:15:05;102272.41;;;15.78;68.26
46045;BME280;31781;54.094;13.428;2023-05-21T05:17:07;102273.28;;;15.85;67.96
46045;BME280;31781;54.094;13.428;2023-05-21T05:19:09;102266.97;;;15.91;67.94
46045;BME280;31781;54.094;13.428;2023-05-21T05:21:10;102270.41;;;16.00;68.26
46045;BME280;31781;54.094;13.428;2023-05-21T05:23:12;102261.50;;;16.04;68.09
46045;BME280;31781;54.094;13.428;2023-05-21T05:25:14;102261.31;;;16.13;67.89
46045;BME280;31781;54.094;13.428;2023-05-21T05:27:16;102257.72;;;16.19;67.77
46045;BME280;31781;54.094;13.428;2023-05-21T05:29:19;102267.66;;;16.26;67.51
46045;BME280;31781;54.094;13.428;2023-05-21T05:31:21;102264.09;;;16.32;67.25
46045;BME280;31781;54.094;13.428;2023-05-21T05:33:23;102266.41;;;16.35;67.27
46045;BME280;31781;54.094;13.428;2023-05-21T05:35:25;102268.13;;;16.43;67.52
46045;BME280;31781;54.094;13.428;2023-05-21T05:37:27;102272.13;;;16.47;67.09
46045;BME280;31781;54.094;13.428;2023-05-21T05:39:28;102265.78;;;16.53;67.18
46045;BME280;31781;54.094;13.428;2023-05-21T05:41:30;102258.84;;;16.57;67.21
46045;BME280;31781;54.094;13.428;2023-05-21T05:43:33;102260.34;;;16.66;67.22
46045;BME280;31781;54.094;13.428;2023-05-21T05:45:36;102260.31;;;16.73;67.36
46045;BME280;31781;54.094;13.428;2023-05-21T05:47:39;102259.25;;;16.80;67.87
46045;BME280;31781;54.094;13.428;2023-05-21T05:49:40;102262.84;;;16.87;67.48
46045;BME280;31781;54.094;13.428;2023-05-21T05:51:42;102266.22;;;16.96;67.17
46045;BME280;31781;54.094;13.428;2023-05-21T05:53:44;102256.06;;;17.03;67.55
46045;BME280;31781;54.094;13.428;2023-05-21T05:55:46;102263.00;;;17.12;66.70
46045;BME280;31781;54.094;13.428;2023-05-21T05:57:48;102259.16;;;17.20;65.85
46045;BME280;31781;54.094;13.428;2023-05-21T05:59:50;102255.13;;;17.29;65.88
46045;BME280;31781;54.094;13.428;2023-05-21T06:01:54;102260.38;;;17.37;65.50
46045;BME280;31781;54.094;13.428;2023-05-21T06:03:55;102253.56;;;17.46;65.87
46045;BME280;31781;54.094;13.428;2023-05-21T06:05:57;102251.44;;;17.55;65.28
46045;BME280;31781;54.094;13.428;2023-05-21T06:07:59;102250.78;;;17.66;65.38
46045;BME280;31781;54.094;13.428;2023-05-21T06:10:00;102256.66;;;17.76;64.97
46045;BME280;31781;54.094;13.428;2023-05-21T06:12:03;102261.66;;;17.85;64.56
46045;BME280;31781;54.094;13.428;2023-05-21T06:14:05;102257.59;;;17.94;64.50
46045;BME280;31781;54.094;13.428;2023-05-21T06:16:08;102255.00;;;18.06;64.42
46045;BME280;31781;54.094;13.428;2023-05-21T06:18:11;102250.88;;;18.15;63.45
46045;BME280;31781;54.094;13.428;2023-05-21T06:20:13;102256.78;;;18.25;63.16
46045;BME280;31781;54.094;13.428;2023-05-21T06:22:16;102260.06;;;18.34;63.33
46045;BME280;31781;54.094;13.428;2023-05-21T06:24:18;102257.66;;;18.44;63.31
46045;BME280;31781;54.094;13.428;2023-05-21T06:26:20;102255.50;;;18.53;63.20
46045;BME280;31781;54.094;13.428;2023-05-21T06:28:22;102255.00;;;18.62;62.86
46045;BME280;31781;54.094;13.428;2023-05-21T06:30:24;102256.19;;;18.73;63.08
46045;BME280;31781;54.094;13.428;2023-05-21T06:32:25;102255.66;;;18.82;63.24
46045;BME280;31781;54.094;13.428;2023-05-21T06:34:29;102251.31;;;18.93;63.08
46045;BME280;31781;54.094;13.428;2023-05-21T06:36:31;102261.38;;;19.06;62.48
46045;BME280;31781;54.094;13.428;2023-05-21T06:38:33;102259.13;;;19.14;61.84
46045;BME280;31781;54.094;13.428;2023-05-21T06:40:34;102264.75;;;19.26;62.22
46045;BME280;31781;54.094;13.428;2023-05-21T06:42:36;102255.09;;;19.35;61.78
46045;BME280;31781;54.094;13.428;2023-05-21T06:44:38;102262.38;;;19.48;62.13
46045;BME280;31781;54.094;13.428;2023-05-21T06:46:40;102256.94;;;19.59;61.40
46045;BME280;31781;54.094;13.428;2023-05-21T06:48:43;102257.84;;;19.71;61.52
46045;BME280;31781;54.094;13.428;2023-05-21T06:50:46;102258.75;;;19.83;60.63
46045;BME280;31781;54.094;13.428;2023-05-21T06:52:48;102258.78;;;19.95;60.89
46045;BME280;31781;54.094;13.428;2023-05-21T06:54:50;102254.38;;;20.06;59.23
46045;BME280;31781;54.094;13.428;2023-05-21T06:56:51;102256.34;;;20.17;59.53
46045;BME280;31781;54.094;13.428;2023-05-21T06:58:53;102267.47;;;20.28;59.64
46045;BME280;31781;54.094;13.428;2023-05-21T07:00:55;102264.94;;;20.38;58.86
46045;BME280;31781;54.094;13.428;2023-05-21T07:02:57;102263.78;;;20.46;58.48
46045;BME280;31781;54.094;13.428;2023-05-21T07:04:59;102262.94;;;20.57;58.43
46045;BME280;31781;54.094;13.428;2023-05-21T07:07:02;102262.13;;;20.68;59.01
46045;BME280;31781;54.094;13.428;2023-05-21T07:09:04;102266.56;;;20.81;58.93
46045;BME280;31781;54.094;13.428;2023-05-21T07:11:06;102261.03;;;20.93;57.18
46045;BME280;31781;54.094;13.428;2023-05-21T07:13:08;102257.41;;;21.04;57.23
46045;BME280;31781;54.094;13.428;2023-05-21T07:15:10;102264.66;;;21.16;57.25
46045;BME280;31781;54.094;13.428;2023-05-21T07:17:12;102256.56;;;21.26;56.52
46045;BME280;31781;54.094;13.428;2023-05-21T07:19:14;102260.16;;;21.39;56.21
46045;BME280;31781;54.094;13.428;2023-05-21T07:21:16;102263.72;;;21.51;55.62
46045;BME280;31781;54.094;13.428;2023-05-21T07:23:19;102258.16;;;21.62;56.06
46045;BME280;31781;54.094;13.428;2023-05-21T07:25:21;102255.34;;;21.74;55.50
46045;BME280;31781;54.094;13.428;2023-05-21T07:27:23;102256.38;;;21.84;54.67
46045;BME280;31781;54.094;13.428;2023-05-21T07:29:27;102251.91;;;21.95;53.90
46045;BME280;31781;54.094;13.428;2023-05-21T07:31:28;102255.75;;;22.06;54.04
46045;BME280;31781;54.094;13.428;2023-05-21T07:33:30;102255.94;;;22.16;53.47
46045;BME280;31781;54.094;13.428;2023-05-21T07:35:32;102242.50;;;22.24;53.41
46045;BME280;31781;54.094;13.428;2023-05-21T07:37:34;102245.69;;;22.33;53.99
46045;BME280;31781;54.094;13.428;2023-05-21T07:39:37;102249.47;;;22.44;53.05
46045;BME280;31781;54.094;13.428;2023-05-21T07:41:39;102248.22;;;22.51;52.35
46045;BME280;31781;54.094;13.428;2023-05-21T07:43:40;102250.00;;;22.57;52.52
46045;BME280;31781;54.094;13.428;2023-05-21T07:45:42;102248.41;;;22.61;51.79
46045;BME280;31781;54.094;13.428;2023-05-21T07:47:45;102250.66;;;22.64;51.68
46045;BME280;31781;54.094;13.428;2023-05-21T07:49:47;102244.84;;;22.66;51.49
46045;BME280;31781;54.094;13.428;2023-05-21T07:51:49;102247.97;;;22.69;51.48
46045;BME280;31781;54.094;13.428;2023-05-21T07:53:51;102247.75;;;22.71;51.04
46045;BME280;31781;54.094;13.428;2023-05-21T07:55:57;102255.81;;;22.72;51.31
46045;BME280;31781;54.094;13.428;2023-05-21T07:57:58;102260.88;;;22.75;51.22
46045;BME280;31781;54.094;13.428;2023-05-21T08:00:00;102253.97;;;22.78;51.23
46045;BME280;31781;54.094;13.428;2023-05-21T08:02:02;102262.03;;;22.79;50.53
46045;BME280;31781;54.094;13.428;2023-05-21T08:04:04;102264.31;;;22.83;51.12
46045;BME280;31781;54.094;13.428;2023-05-21T08:06:06;102268.25;;;22.87;50.88
46045;BME280;31781;54.094;13.428;2023-05-21T08:08:10;102262.69;;;22.87;50.55
46045;BME280;31781;54.094;13.428;2023-05-21T08:10:12;102264.13;;;22.89;50.85
46045;BME280;31781;54.094;13.428;2023-05-21T08:12:15;102262.75;;;22.92;50.58
46045;BME280;31781;54.094;13.428;2023-05-21T08:14:17;102263.38;;;22.94;50.57
46045;BME280;31781;54.094;13.428;2023-05-21T08:16:19;102253.94;;;22.95;50.86
46045;BME280;31781;54.094;13.428;2023-05-21T08:18:22;102256.22;;;22.98;49.91
46045;BME280;31781;54.094;13.428;2023-05-21T08:20:27;102256.25;;;23.03;49.62
46045;BME280;31781;54.094;13.428;2023-05-21T08:22:28;102257.72;;;23.05;50.87
46045;BME280;31781;54.094;13.428;2023-05-21T08:24:30;102263.59;;;23.09;49.91
46045;BME280;31781;54.094;13.428;2023-05-21T08:26:32;102261.47;;;23.16;50.64
46045;BME280;31781;54.094;13.428;2023-05-21T08:28:36;102256.81;;;23.21;50.28
46045;BME280;31781;54.094;13.428;2023-05-21T08:30:38;102268.84;;;23.27;50.65
46045;BME280;31781;54.094;13.428;2023-05-21T08:32:40;102264.78;;;23.35;49.82
46045;BME280;31781;54.094;13.428;2023-05-21T08:34:42;102272.72;;;23.43;49.36
46045;BME280;31781;54.094;13.428;2023-05-21T08:36:44;102265.84;;;23.50;49.54
46045;BME280;31781;54.094;13.428;2023-05-21T08:38:47;102262.59;;;23.58;49.61
46045;BME280;31781;54.094;13.428;2023-05-21T08:40:50;102265.78;;;23.67;50.10
46045;BME280;31781;54.094;13.428;2023-05-21T08:42:52;102269.53;;;23.77;49.36
46045;BME280;31781;54.094;13.428;2023-05-21T08:44:58;102262.41;;;23.87;50.14
46045;BME280;31781;54.094;13.428;2023-05-21T08:47:01;102265.28;;;23.97;49.18
46045;BME280;31781;54.094;13.428;2023-05-21T08:49:10;102264.03;;;24.09;49.21
46045;BME280;31781;54.094;13.428;2023-05-21T08:51:12;102268.06;;;24.18;48.63
46045;BME280;31781;54.094;13.428;2023-05-21T08:53:15;102264.78;;;24.27;48.77
46045;BME280;31781;54.094;13.428;2023-05-21T08:55:29;102256.28;;;24.38;48.43
46045;BME280;31781;54.094;13.428;2023-05-21T08:57:32;102258.31;;;24.48;47.96
46045;BME280;31781;54.094;13.428;2023-05-21T08:59:34;102249.78;;;24.59;49.06
46045;BME280;31781;54.094;13.428;2023-05-21T09:01:38;102249.31;;;24.72;47.69
46045;BME280;31781;54.094;13.428;2023-05-21T09:03:41;102256.16;;;24.87;48.20
46045;BME280;31781;54.094;13.428;2023-05-21T09:05:44;102256.22;;;25.02;47.67
46045;BME280;31781;54.094;13.428;2023-05-21T09:07:49;102248.25;;;25.15;47.46
46045;BME280;31781;54.094;13.428;2023-05-21T09:09:57;102253.91;;;25.31;47.72
46045;BME280;31781;54.094;13.428;2023-05-21T09:11:59;102244.19;;;25.43;46.36
46045;BME280;31781;54.094;13.428;2023-05-21T09:14:01;102244.00;;;25.55;46.36
46045;BME280;31781;54.094;13.428;2023-05-21T09:16:04;102236.81;;;25.64;45.14
46045;BME280;31781;54.094;13.428;2023-05-21T09:18:08;102245.19;;;25.74;45.81
46045;BME280;31781;54.094;13.428;2023-05-21T09:20:11;102240.19;;;25.81;45.83
46045;BME280;31781;54.094;13.428;2023-05-21T09:22:13;102238.81;;;25.89;45.16
46045;BME280;31781;54.094;13.428;2023-05-21T09:24:17;102239.94;;;25.93;44.49
46045;BME280;31781;54.094;13.428;2023-05-21T09:26:22;102243.31;;;26.00;44.97
46045;BME280;31781;54.094;13.428;2023-05-21T09:28:24;102238.28;;;26.07;44.96
46045;BME280;31781;54.094;13.428;2023-05-21T09:30:26;102233.28;;;26.14;44.54
46045;BME280;31781;54.094;13.428;2023-05-21T09:32:32;102235.81;;;26.21;44.80
46045;BME280;31781;54.094;13.428;2023-05-21T09:34:35;102234.72;;;26.27;45.05
46045;BME280;31781;54.094;13.428;2023-05-21T09:36:38;102236.13;;;26.34;44.94
46045;BME280;31781;54.094;13.428;2023-05-21T09:38:40;102231.94;;;26.42;45.23
46045;BME280;31781;54.094;13.428;2023-05-21T09:40:44;102234.44;;;26.48;44.95
46045;BME280;31781;54.094;13.428;2023-05-21T09:42:48;102228.84;;;26.53;43.97
46045;BME280;31781;54.094;13.428;2023-05-21T09:44:50;102233.31;;;26.59;43.87
46045;BME280;31781;54.094;13.428;2023-05-21T09:46:56;102233.03;;;26.66;44.53
46045;BME280;31781;54.094;13.428;2023-05-21T09:48:58;102234.69;;;26.72;44.12
46045;BME280;31781;54.094;13.428;2023-05-21T09:51:08;102238.03;;;26.79;45.24
46045;BME280;31781;54.094;13.428;2023-05-21T09:53:11;102241.97;;;26.83;43.46
46045;BME280;31781;54.094;13.428;2023-05-21T09:55:15;102240.00;;;26.84;42.90
46045;BME280;31781;54.094;13.428;2023-05-21T09:57:22;102240.03;;;26.89;44.68
46045;BME280;31781;54.094;13.428;2023-05-21T09:59:34;102237.22;;;26.94;44.81
46045;BME280;31781;54.094;13.428;2023-05-21T10:01:36;102249.22;;;26.99;43.56
46045;BME280;31781;54.094;13.428;2023-05-21T10:03:38;102239.41;;;27.02;42.88
46045;BME280;31781;54.094;13.428;2023-05-21T10:05:41;102245.28;;;27.05;42.83
46045;BME280;31781;54.094;13.428;2023-05-21T10:07:48;102237.16;;;27.09;43.69
46045;BME280;31781;54.094;13.428;2023-05-21T10:09:52;102244.44;;;27.15;42.59
46045;BME280;31781;54.094;13.428;2023-05-21T10:11:55;102236.31;;;27.19;42.93
46045;BME280;31781;54.094;13.428;2023-05-21T10:14:03;102235.47;;;27.23;43.30
46045;BME280;31781;54.094;13.428;2023-05-21T10:16:14;102232.38;;;27.30;42.88
46045;BME280;31781;54.094;13.428;2023-05-21T10:18:17;102234.00;;;27.36;42.68
46045;BME280;31781;54.094;13.428;2023-05-21T10:20:21;102223.09;;;27.39;42.19
46045;BME280;31781;54.094;13.428;2023-05-21T10:22:23;102227.28;;;27.47;42.61
46045;BME280;31781;54.094;13.428;2023-05-21T10:24:27;102225.84;;;27.54;42.42
46045;BME280;31781;54.094;13.428;2023-05-21T10:26:30;102223.56;;;27.62;41.24
46045;BME280;31781;54.094;13.428;2023-05-21T10:28:32;102231.38;;;27.70;41.42
46045;BME280;31781;54.094;13.428;2023-05-21T10:30:35;102229.94;;;27.77;42.33
46045;BME280;31781;54.094;13.428;2023-05-21T10:32:39;102223.16;;;27.88;41.38